createdAt,value
2022-12-12T00:00:22.268Z,20.63
2022-12-12T00:02:51.287Z,20.23
2022-12-12T00:05:19.450Z,19.20
2022-12-12T00:07:47.824Z,20.20
2022-12-12T00:10:15.516Z,21.83
2022-12-12T00:12:43.305Z,21.53
2022-12-12T00:15:12.714Z,20.77
2022-12-12T00:17:40.750Z,20.37
2022-12-12T00:20:08.526Z,20.10
2022-12-12T00:22:36.353Z,20.40
2022-12-12T00:25:04.320Z,21.50
2022-12-12T00:27:32.112Z,20.43
2022-12-12T00:30:00.030Z,21.90
2022-12-12T00:32:30.361Z,20.70
2022-12-12T00:34:58.940Z,20.67
2022-12-12T00:37:26.553Z,19.37
2022-12-12T00:39:54.870Z,20.50
2022-12-12T00:42:22.446Z,20.60
2022-12-12T00:44:50.417Z,20.70
2022-12-12T00:47:18.310Z,20.30
2022-12-12T00:49:47.393Z,20.40
2022-12-12T00:52:15.017Z,21.03
2022-12-12T00:54:43.175Z,21.47
2022-12-12T00:57:10.992Z,20.70
2022-12-12T00:59:38.760Z,21.90
2022-12-12T01:02:06.682Z,20.90
2022-12-12T01:04:34.738Z,20.80
2022-12-12T01:07:03.690Z,21.90
2022-12-12T01:09:31.346Z,20.37
2022-12-12T01:11:58.969Z,21.10
2022-12-12T01:14:26.778Z,20.10
2022-12-12T01:16:54.444Z,20.53
2022-12-12T01:19:22.066Z,20.63
2022-12-12T01:21:49.746Z,20.97
2022-12-12T01:24:20.242Z,21.30
2022-12-12T01:26:48.044Z,21.27
2022-12-12T01:29:16.220Z,20.90
2022-12-12T01:31:43.965Z,22.33
2022-12-12T01:34:11.993Z,21.30
2022-12-12T01:36:39.884Z,21.53
2022-12-12T01:39:07.910Z,22.20
2022-12-12T01:41:36.985Z,22.63
2022-12-12T01:44:06.265Z,21.67
2022-12-12T01:46:36.204Z,23.00
2022-12-12T01:49:06.856Z,22.43
2022-12-12T01:51:34.968Z,23.53
2022-12-12T01:54:05.185Z,22.10
2022-12-12T01:56:33.392Z,23.60
2022-12-12T01:59:04.945Z,21.13
2022-12-12T02:01:33.077Z,22.70
2022-12-12T02:04:01.630Z,20.90
2022-12-12T02:06:29.943Z,22.97
2022-12-12T02:08:59.262Z,22.67
2022-12-12T02:11:27.801Z,21.23
2022-12-12T02:13:55.469Z,21.37
2022-12-12T02:16:30.247Z,19.63
2022-12-12T02:18:59.911Z,19.70
2022-12-12T02:21:32.375Z,19.30
2022-12-12T02:24:11.156Z,18.97
2022-12-12T02:26:57.908Z,19.90
2022-12-12T02:29:43.438Z,21.10
2022-12-12T02:32:20.406Z,21.73
2022-12-12T02:34:50.708Z,20.90
2022-12-12T02:37:22.382Z,21.00
2022-12-12T02:39:56.254Z,20.73
2022-12-12T02:42:26.764Z,21.90
2022-12-12T02:44:57.249Z,22.33
2022-12-12T02:47:30.011Z,22.13
2022-12-12T02:50:01.410Z,22.87
2022-12-12T02:52:29.715Z,21.83
2022-12-12T02:54:57.297Z,21.70
2022-12-12T02:57:26.163Z,22.77
2022-12-12T02:59:56.461Z,22.33
2022-12-12T03:02:40.242Z,22.87
2022-12-12T03:05:32.369Z,21.97
2022-12-12T03:08:04.345Z,22.60
2022-12-12T03:10:36.628Z,22.83
2022-12-12T03:13:10.169Z,22.43
2022-12-12T03:15:43.110Z,22.30
2022-12-12T03:18:17.737Z,24.90
2022-12-12T03:20:48.968Z,23.33
2022-12-12T03:23:18.341Z,22.60
2022-12-12T03:25:48.422Z,23.80
2022-12-12T03:31:03.982Z,25.10
2022-12-12T03:33:37.951Z,26.47
2022-12-12T03:36:08.481Z,24.67
2022-12-12T03:38:39.472Z,24.20
2022-12-12T03:41:09.814Z,24.47
2022-12-12T03:43:40.386Z,23.17
2022-12-12T03:46:10.375Z,23.47
2022-12-12T03:48:41.245Z,22.40
2022-12-12T03:51:13.395Z,23.00
2022-12-12T03:53:45.769Z,22.97
2022-12-12T03:56:16.095Z,22.33
2022-12-12T03:58:47.057Z,23.13
2022-12-12T04:01:16.075Z,22.20
2022-12-12T04:03:51.039Z,22.43
2022-12-12T04:06:28.145Z,21.97
2022-12-12T04:09:16.616Z,20.80
2022-12-12T04:12:08.762Z,21.70
2022-12-12T04:14:46.417Z,21.13
2022-12-12T04:17:15.854Z,22.67
2022-12-12T04:20:04.594Z,25.00
2022-12-12T04:22:55.264Z,20.53
2022-12-12T04:25:27.886Z,23.53
2022-12-12T04:27:59.686Z,22.10
2022-12-12T04:30:29.936Z,20.77
2022-12-12T04:32:59.225Z,22.93
2022-12-12T04:35:30.560Z,22.40
2022-12-12T04:37:59.057Z,23.00
2022-12-12T04:40:28.717Z,24.33
2022-12-12T04:42:59.160Z,23.63
2022-12-12T04:45:29.344Z,22.17
2022-12-12T04:47:57.651Z,23.57
2022-12-12T04:50:26.659Z,20.93
2022-12-12T04:52:56.690Z,21.20
2022-12-12T04:55:27.309Z,21.30
2022-12-12T04:57:56.994Z,21.53
2022-12-12T05:00:25.876Z,20.00
2022-12-12T05:02:57.667Z,20.23
2022-12-12T05:05:27.418Z,20.70
2022-12-12T05:07:58.988Z,20.07
2022-12-12T05:10:26.809Z,20.97
2022-12-12T05:12:57.901Z,21.57
2022-12-12T05:15:26.265Z,20.43
2022-12-12T05:17:57.335Z,18.30
2022-12-12T05:20:25.501Z,18.10
2022-12-12T05:22:53.447Z,17.20
2022-12-12T05:25:22.504Z,16.00
2022-12-12T05:27:50.188Z,15.10
2022-12-12T05:30:18.612Z,15.17
2022-12-12T05:32:46.256Z,15.70
2022-12-12T05:35:14.259Z,13.50
2022-12-12T05:37:45.519Z,13.37
2022-12-12T05:40:17.845Z,13.27
2022-12-12T05:42:47.190Z,13.20
2022-12-12T05:45:15.206Z,11.87
2022-12-12T05:47:43.040Z,11.60
2022-12-12T05:50:13.041Z,12.00
2022-12-12T05:52:40.636Z,11.67
2022-12-12T05:55:09.029Z,11.30
2022-12-12T05:57:36.690Z,11.10
2022-12-12T06:00:10.039Z,10.80
2022-12-12T06:02:37.855Z,11.17
2022-12-12T06:05:05.895Z,11.30
2022-12-12T06:07:33.662Z,9.73
2022-12-12T06:10:01.297Z,9.93
2022-12-12T06:12:29.004Z,10.57
2022-12-12T06:14:56.577Z,10.33
2022-12-12T06:17:51.464Z,8.93
2022-12-12T06:20:19.473Z,9.27
2022-12-12T06:22:53.372Z,9.20
2022-12-12T06:25:21.902Z,9.00
2022-12-12T06:27:49.498Z,8.73
2022-12-12T06:30:17.825Z,9.10
2022-12-12T06:32:45.960Z,9.53
2022-12-12T06:35:16.198Z,8.63
2022-12-12T06:37:44.270Z,8.50
2022-12-12T06:40:12.916Z,9.43
2022-12-12T06:42:44.777Z,8.73
2022-12-12T06:45:16.363Z,9.10
2022-12-12T06:47:44.130Z,9.30
2022-12-12T06:50:12.332Z,9.70
2022-12-12T06:52:41.706Z,10.30
2022-12-12T06:55:09.900Z,10.60
2022-12-12T06:57:37.568Z,10.07
2022-12-12T07:00:07.485Z,9.00
2022-12-12T07:02:35.814Z,9.90
2022-12-12T07:05:03.515Z,10.60
2022-12-12T07:07:32.324Z,11.10
2022-12-12T07:10:01.644Z,11.97
2022-12-12T07:12:29.254Z,10.73
2022-12-12T07:14:57.202Z,11.13
2022-12-12T07:17:24.776Z,10.80
2022-12-12T07:19:52.718Z,10.80
2022-12-12T07:22:20.664Z,10.10
2022-12-12T07:24:48.351Z,11.40
2022-12-12T07:27:21.656Z,10.87
2022-12-12T07:29:49.868Z,10.47
2022-12-12T07:32:17.515Z,11.27
2022-12-12T07:34:45.496Z,10.30
2022-12-12T07:37:13.322Z,10.30
2022-12-12T07:39:41.108Z,10.97
2022-12-12T07:42:08.854Z,11.40
2022-12-12T07:44:38.201Z,11.23
2022-12-12T07:47:06.361Z,10.57
2022-12-12T07:49:34.153Z,9.47
2022-12-12T07:52:01.814Z,9.70
2022-12-12T07:54:29.469Z,11.47
2022-12-12T07:56:57.131Z,11.00
2022-12-12T07:59:25.091Z,11.07
2022-12-12T08:01:54.172Z,10.50
2022-12-12T08:04:22.051Z,9.90
2022-12-12T08:06:54.006Z,10.60
2022-12-12T08:09:25.852Z,9.50
2022-12-12T08:11:55.786Z,9.87
2022-12-12T08:14:23.553Z,9.40
2022-12-12T08:16:51.228Z,10.30
2022-12-12T08:19:20.702Z,10.03
2022-12-12T08:21:48.456Z,9.27
2022-12-12T08:24:16.917Z,9.87
2022-12-12T08:26:44.957Z,9.77
2022-12-12T08:29:14.138Z,9.60
2022-12-12T08:31:43.217Z,9.30
2022-12-12T08:34:11.538Z,8.73
2022-12-12T08:36:40.564Z,8.57
2022-12-12T08:39:09.659Z,9.10
2022-12-12T08:41:39.593Z,9.30
2022-12-12T08:44:07.768Z,8.57
2022-12-12T08:46:36.708Z,8.93
2022-12-12T08:49:04.579Z,8.60
2022-12-12T08:51:32.317Z,8.80
2022-12-12T08:54:01.703Z,8.50
2022-12-12T08:56:29.543Z,8.17
2022-12-12T08:58:57.273Z,8.13
2022-12-12T09:01:26.022Z,7.50
2022-12-12T09:03:55.820Z,8.17
2022-12-12T09:06:23.873Z,8.93
2022-12-12T09:08:51.774Z,8.03
2022-12-12T09:11:21.044Z,8.00
2022-12-12T09:13:48.773Z,8.00
2022-12-12T09:16:16.834Z,7.33
2022-12-12T09:18:49.128Z,8.30
2022-12-12T09:21:17.726Z,8.03
2022-12-12T09:23:45.876Z,7.53
2022-12-12T09:26:14.346Z,7.50
2022-12-12T09:28:43.570Z,7.07
2022-12-12T09:31:12.426Z,6.80
2022-12-12T09:33:40.195Z,6.47
2022-12-12T09:36:08.896Z,7.63
2022-12-12T09:38:36.768Z,6.90
2022-12-12T09:41:11.161Z,7.60
2022-12-12T09:43:41.520Z,7.17
2022-12-12T09:46:15.339Z,7.77
2022-12-12T09:48:44.296Z,8.40
2022-12-12T09:51:12.161Z,8.13
2022-12-12T09:53:41.292Z,7.93
2022-12-12T09:56:11.742Z,7.33
2022-12-12T09:58:47.468Z,7.00
2022-12-12T10:01:22.419Z,6.60
2022-12-12T10:03:55.090Z,7.20
2022-12-12T10:06:39.137Z,8.07
2022-12-12T10:09:11.331Z,8.00
2022-12-12T10:11:55.153Z,6.53
2022-12-12T10:14:27.501Z,6.20
2022-12-12T10:16:58.543Z,6.70
2022-12-12T10:19:28.285Z,7.03
2022-12-12T10:21:59.494Z,6.50
2022-12-12T10:24:30.205Z,6.10
2022-12-12T10:26:59.170Z,5.60
2022-12-12T10:29:27.423Z,6.10
2022-12-12T10:32:01.467Z,6.27
2022-12-12T10:34:37.130Z,5.63
2022-12-12T10:37:15.042Z,6.10
2022-12-12T10:39:47.070Z,5.43
2022-12-12T10:42:18.462Z,6.40
2022-12-12T10:45:00.730Z,5.73
2022-12-12T10:47:30.999Z,6.83
2022-12-12T10:50:02.916Z,6.20
2022-12-12T10:52:31.128Z,5.20
2022-12-12T10:55:00.041Z,5.87
2022-12-12T10:57:29.102Z,6.30
2022-12-12T10:59:57.822Z,6.53
2022-12-12T11:02:39.256Z,5.40
2022-12-12T11:05:10.923Z,5.40
2022-12-12T11:07:40.616Z,4.97
2022-12-12T11:10:30.590Z,4.90
2022-12-12T11:13:02.735Z,4.67
2022-12-12T11:15:32.734Z,5.13
2022-12-12T11:18:06.086Z,4.37
2022-12-12T11:20:34.870Z,5.37
2022-12-12T11:23:02.602Z,6.50
2022-12-12T11:25:31.940Z,6.40
2022-12-12T11:28:06.641Z,6.97
2022-12-12T11:30:36.020Z,7.43
2022-12-12T11:33:06.594Z,8.90
2022-12-12T11:35:35.559Z,7.40
2022-12-12T11:38:05.091Z,7.40
2022-12-12T11:40:34.224Z,6.60
2022-12-12T11:43:09.053Z,7.83
2022-12-12T11:45:37.591Z,8.40
2022-12-12T11:48:30.160Z,8.23
2022-12-12T11:50:58.713Z,7.67
2022-12-12T11:53:26.642Z,6.70
2022-12-12T11:55:59.001Z,6.53
2022-12-12T11:58:28.893Z,7.40
2022-12-12T12:00:58.486Z,8.00
2022-12-12T12:03:36.063Z,7.77
2022-12-12T12:06:31.018Z,7.10
2022-12-12T12:09:20.042Z,7.83
2022-12-12T12:11:53.203Z,7.73
2022-12-12T12:14:31.391Z,8.57
2022-12-12T12:17:03.524Z,9.00
2022-12-12T12:19:37.694Z,9.80
2022-12-12T12:22:11.578Z,9.33
2022-12-12T12:25:00.210Z,9.20
2022-12-12T12:27:32.384Z,9.77
2022-12-12T12:30:18.714Z,10.03
2022-12-12T12:32:54.662Z,10.00
2022-12-12T12:35:30.422Z,10.10
2022-12-12T12:38:06.090Z,9.53
2022-12-12T12:40:42.051Z,8.30
2022-12-12T12:43:17.296Z,8.10
2022-12-12T12:45:46.439Z,6.40
2022-12-12T12:48:17.543Z,6.80
2022-12-12T12:50:48.237Z,6.40
2022-12-12T12:53:23.382Z,5.67
2022-12-12T12:55:52.647Z,5.73
2022-12-12T12:58:22.946Z,5.80
2022-12-12T13:00:54.077Z,6.47
2022-12-12T13:03:25.432Z,6.20
2022-12-12T13:05:59.043Z,5.40
2022-12-12T13:08:30.675Z,5.40
2022-12-12T13:11:00.932Z,5.63
2022-12-12T13:13:30.551Z,5.87
2022-12-12T13:16:02.360Z,5.60
2022-12-12T13:18:44.457Z,5.43
2022-12-12T13:21:17.757Z,6.70
2022-12-12T13:23:50.619Z,5.50
2022-12-12T13:26:22.393Z,5.27
2022-12-12T13:28:52.599Z,5.37
2022-12-12T13:31:27.137Z,5.30
2022-12-12T13:33:57.280Z,5.07
2022-12-12T13:36:30.583Z,5.90
2022-12-12T13:38:59.278Z,5.87
2022-12-12T13:41:27.065Z,6.17
2022-12-12T13:43:57.799Z,6.13
2022-12-12T13:46:39.654Z,6.20
2022-12-12T13:49:25.641Z,5.80
2022-12-12T13:52:14.656Z,6.33
2022-12-12T13:54:46.684Z,6.13
2022-12-12T13:57:31.389Z,6.80
2022-12-12T14:00:30.070Z,6.20
2022-12-12T14:03:01.768Z,6.10
2022-12-12T14:05:31.537Z,7.17
2022-12-12T14:08:03.218Z,6.40
2022-12-12T14:10:33.859Z,6.53
2022-12-12T14:13:18.248Z,5.70
2022-12-12T14:15:47.763Z,6.50
2022-12-12T14:18:19.907Z,6.43
2022-12-12T14:20:55.137Z,7.30
2022-12-12T14:23:26.287Z,7.40
2022-12-12T14:25:54.942Z,8.13
2022-12-12T14:28:24.237Z,8.83
2022-12-12T14:30:56.345Z,9.17
2022-12-12T14:33:47.745Z,9.73
2022-12-12T14:36:26.784Z,9.33
2022-12-12T14:39:02.997Z,10.50
2022-12-12T14:41:33.673Z,10.40
2022-12-12T14:44:35.303Z,9.07
2022-12-12T14:46:51.465Z,9.80
2022-12-12T14:49:19.676Z,10.10
2022-12-12T14:51:49.526Z,10.13
2022-12-12T14:54:19.751Z,10.00
2022-12-12T14:56:52.718Z,10.20
2022-12-12T14:59:22.756Z,10.90
2022-12-12T15:01:51.964Z,12.77
2022-12-12T15:04:22.333Z,10.10
2022-12-12T15:06:51.328Z,10.17
2022-12-12T15:09:29.517Z,10.67
2022-12-12T15:12:06.302Z,10.80
2022-12-12T15:14:34.316Z,9.80
2022-12-12T15:17:03.741Z,9.87
2022-12-12T15:19:36.714Z,9.43
2022-12-12T15:22:04.770Z,9.83
2022-12-12T15:24:39.097Z,10.27
2022-12-12T15:27:09.885Z,8.77
2022-12-12T15:29:39.220Z,10.10
2022-12-12T15:32:09.211Z,8.83
2022-12-12T15:34:41.182Z,9.73
2022-12-12T15:37:13.689Z,9.57
2022-12-12T15:39:42.699Z,9.43
2022-12-12T15:42:10.891Z,9.60
2022-12-12T15:44:39.055Z,9.70
2022-12-12T15:47:06.912Z,8.93
2022-12-12T15:49:39.376Z,9.77
2022-12-12T15:52:11.943Z,9.30
2022-12-12T15:54:47.034Z,9.47
2022-12-12T15:57:16.042Z,10.20
2022-12-12T15:59:47.463Z,9.30
2022-12-12T16:02:26.255Z,9.60
2022-12-12T16:04:54.990Z,9.83
2022-12-12T16:07:23.427Z,9.30
2022-12-12T16:10:00.155Z,8.87
2022-12-12T16:12:46.309Z,8.90
2022-12-12T16:15:21.414Z,9.70
2022-12-12T16:17:59.147Z,9.43
2022-12-12T16:20:30.561Z,11.03
2022-12-12T16:23:09.845Z,10.40
2022-12-12T16:25:39.573Z,9.80
2022-12-12T16:28:20.211Z,10.00
2022-12-12T16:30:53.192Z,10.20
2022-12-12T16:33:24.872Z,10.47
2022-12-12T16:35:52.936Z,10.80
2022-12-12T16:38:21.435Z,10.53
2022-12-12T16:40:51.199Z,10.10
2022-12-12T16:43:21.090Z,10.23
2022-12-12T16:45:49.942Z,9.60
2022-12-12T16:48:18.792Z,9.10
2022-12-12T16:50:47.573Z,9.00
2022-12-12T16:53:15.275Z,9.80
2022-12-12T16:55:44.703Z,8.67
2022-12-12T16:58:14.086Z,9.60
2022-12-12T17:00:42.112Z,9.43
2022-12-12T17:03:11.903Z,9.63
2022-12-12T17:05:39.838Z,9.10
2022-12-12T17:08:07.763Z,8.90
2022-12-12T17:10:36.902Z,9.03
2022-12-12T17:13:05.490Z,8.47
2022-12-12T17:15:35.190Z,8.87
2022-12-12T17:18:02.838Z,8.50
2022-12-12T17:20:37.820Z,9.20
2022-12-12T17:25:54.674Z,9.03
2022-12-12T17:28:26.858Z,8.50
2022-12-12T17:30:56.011Z,10.10
2022-12-12T17:33:23.842Z,9.27
2022-12-12T17:35:58.154Z,9.33
2022-12-12T17:38:26.031Z,8.73
2022-12-12T17:40:56.811Z,8.77
2022-12-12T17:43:25.406Z,8.40
2022-12-12T17:46:01.761Z,8.70
2022-12-12T17:48:30.961Z,8.70
2022-12-12T17:51:00.161Z,8.10
2022-12-12T17:53:32.517Z,6.93
2022-12-12T17:56:01.618Z,7.00
2022-12-12T17:58:36.241Z,6.93
2022-12-12T18:01:11.348Z,7.27
2022-12-12T18:03:39.370Z,7.30
2022-12-12T18:06:07.453Z,6.70
2022-12-12T18:08:35.438Z,6.40
2022-12-12T18:11:06.301Z,7.20
2022-12-12T18:13:34.284Z,7.20
2022-12-12T18:16:01.903Z,6.60
2022-12-12T18:18:33.254Z,6.60
2022-12-12T18:21:04.775Z,6.83
2022-12-12T18:23:32.873Z,5.90
2022-12-12T18:26:06.535Z,7.47
2022-12-12T18:28:34.933Z,6.87
2022-12-12T18:31:02.689Z,6.50
2022-12-12T18:33:32.373Z,6.03
2022-12-12T18:36:00.805Z,6.30
2022-12-12T18:38:28.515Z,6.30
2022-12-12T18:40:56.527Z,6.40
2022-12-12T18:43:25.563Z,6.20
2022-12-12T18:45:53.269Z,6.17
2022-12-12T18:48:21.320Z,6.10
2022-12-12T18:50:50.451Z,6.60
2022-12-12T18:53:18.146Z,6.23
2022-12-12T18:55:47.511Z,6.03
2022-12-12T18:58:15.164Z,7.33
2022-12-12T19:00:43.038Z,6.83
2022-12-12T19:03:10.843Z,6.53
2022-12-12T19:05:40.983Z,7.33
2022-12-12T19:08:10.407Z,6.60
2022-12-12T19:10:38.769Z,7.37
2022-12-12T19:13:06.669Z,8.60
2022-12-12T19:15:35.581Z,8.57
2022-12-12T19:18:03.902Z,7.30
2022-12-12T19:20:31.557Z,7.17
2022-12-12T19:22:59.549Z,9.37
2022-12-12T19:25:28.819Z,8.40
2022-12-12T19:27:56.541Z,7.43
2022-12-12T19:30:26.807Z,7.53
2022-12-12T19:32:56.450Z,7.53
2022-12-12T19:35:24.770Z,8.53
2022-12-12T19:37:52.683Z,8.77
2022-12-12T19:40:20.574Z,9.70
2022-12-12T19:42:49.571Z,7.43
2022-12-12T19:45:17.791Z,7.20
2022-12-12T19:47:45.565Z,7.77
2022-12-12T19:50:16.895Z,8.87
2022-12-12T19:52:44.839Z,8.93
2022-12-12T19:55:12.709Z,8.23
2022-12-12T19:57:40.643Z,6.90
2022-12-12T20:00:11.797Z,6.80
2022-12-12T20:02:39.616Z,8.80
2022-12-12T20:05:07.690Z,6.77
2022-12-12T20:07:35.568Z,7.60
2022-12-12T20:10:03.352Z,6.20
2022-12-12T20:12:31.216Z,5.67
2022-12-12T20:14:59.137Z,5.30
2022-12-12T20:17:28.480Z,5.27
2022-12-12T20:19:56.261Z,5.00
2022-12-12T20:22:24.100Z,7.13
2022-12-12T20:24:51.929Z,6.10
2022-12-12T20:27:20.033Z,7.00
2022-12-12T20:29:47.811Z,6.50
2022-12-12T20:32:18.778Z,7.20
2022-12-12T20:34:48.129Z,10.23
2022-12-12T20:37:20.004Z,10.63
2022-12-12T20:39:48.304Z,7.80
2022-12-12T20:42:15.987Z,9.40
2022-12-12T20:44:43.678Z,9.10
2022-12-12T20:47:14.442Z,8.63
2022-12-12T20:49:43.389Z,10.90
2022-12-12T20:52:12.689Z,11.00
2022-12-12T20:54:40.692Z,10.30
2022-12-12T20:57:08.423Z,11.23
2022-12-12T20:59:36.306Z,13.50
2022-12-12T21:02:04.271Z,15.20
2022-12-12T21:04:32.656Z,16.50
2022-12-12T21:07:00.263Z,17.80
2022-12-12T21:09:29.388Z,15.80
2022-12-12T21:11:58.240Z,17.40
2022-12-12T21:14:26.574Z,18.53
2022-12-12T21:16:54.624Z,19.73
2022-12-12T21:19:23.187Z,18.83
2022-12-12T21:21:51.592Z,18.53
2022-12-12T21:24:22.910Z,18.83
2022-12-12T21:26:52.056Z,17.10
2022-12-12T21:29:20.111Z,18.10
2022-12-12T21:31:51.943Z,18.33
2022-12-12T21:34:20.884Z,19.37
2022-12-12T21:36:50.885Z,19.40
2022-12-12T21:39:19.030Z,19.60
2022-12-12T21:41:47.262Z,20.23
2022-12-12T21:44:16.237Z,19.23
2022-12-12T21:46:44.225Z,21.80
2022-12-12T21:49:27.003Z,23.20
2022-12-12T21:51:56.096Z,16.10
2022-12-12T21:54:23.829Z,12.27
2022-12-12T21:56:53.017Z,13.10
2022-12-12T21:59:21.988Z,16.30
2022-12-12T22:01:49.976Z,17.13
2022-12-12T22:04:17.780Z,12.10
2022-12-12T22:06:46.017Z,27.07
2022-12-12T22:09:13.964Z,13.53
2022-12-12T22:11:49.267Z,12.73
2022-12-12T22:14:19.770Z,14.10
2022-12-12T22:16:48.800Z,10.43
2022-12-12T22:19:17.116Z,10.50
2022-12-12T22:21:45.695Z,9.97
2022-12-12T22:24:13.697Z,9.37
2022-12-12T22:26:44.568Z,11.20
2022-12-12T22:29:14.199Z,14.53
2022-12-12T22:31:42.152Z,11.13
2022-12-12T22:34:13.383Z,9.30
2022-12-12T22:36:41.591Z,11.67
2022-12-12T22:39:12.181Z,9.23
2022-12-12T22:41:39.901Z,9.77
2022-12-12T22:44:07.900Z,15.37
2022-12-12T22:46:40.607Z,16.67
2022-12-12T22:49:13.285Z,11.30
2022-12-12T22:51:41.309Z,10.00
2022-12-12T22:54:08.972Z,11.10
2022-12-12T22:56:38.025Z,14.63
2022-12-12T22:59:06.126Z,13.43
2022-12-12T23:01:33.941Z,12.60
2022-12-12T23:04:01.625Z,21.90
2022-12-12T23:06:31.463Z,17.20
2022-12-12T23:08:59.888Z,12.07
2022-12-12T23:11:28.249Z,18.23
2022-12-12T23:13:56.732Z,18.93
2022-12-12T23:16:25.179Z,15.20
2022-12-12T23:18:54.319Z,10.37
2022-12-12T23:21:22.845Z,13.50
2022-12-12T23:23:52.449Z,10.17
2022-12-12T23:26:21.445Z,11.77
2022-12-12T23:28:49.416Z,13.60
2022-12-12T23:31:20.011Z,19.53
2022-12-12T23:33:47.804Z,17.73
2022-12-12T23:36:16.360Z,13.43
2022-12-12T23:38:44.794Z,17.80
2022-12-12T23:41:15.254Z,18.00
2022-12-12T23:43:44.555Z,13.57
2022-12-12T23:46:27.987Z,14.47
2022-12-12T23:48:56.537Z,15.67
2022-12-12T23:51:24.661Z,15.30
2022-12-12T23:53:52.629Z,12.10
2022-12-12T23:56:22.133Z,12.57
2022-12-12T23:58:50.098Z,22.57
